createdAt,value
2018-12-16T00:00:43.963Z,1003.60
2018-12-16T00:01:43.950Z,1003.67
2018-12-16T00:02:43.938Z,1003.66
2018-12-16T00:03:43.931Z,1003.68
2018-12-16T00:04:49.646Z,1003.63
2018-12-16T00:05:43.904Z,1003.64
2018-12-16T00:06:43.892Z,1003.65
2018-12-16T00:07:43.882Z,1003.65
2018-12-16T00:08:43.873Z,1003.62
2018-12-16T00:09:43.859Z,1003.66
2018-12-16T00:10:43.847Z,1003.63
2018-12-16T00:11:43.835Z,1003.64
2018-12-16T00:12:43.824Z,1003.67
2018-12-16T00:13:43.813Z,1003.64
2018-12-16T00:14:43.805Z,1003.65
2018-12-16T00:15:43.790Z,1003.65
2018-12-16T00:16:43.777Z,1003.66
2018-12-16T00:17:43.767Z,1003.68
2018-12-16T00:18:43.907Z,1003.65
2018-12-16T00:19:43.744Z,1003.69
2018-12-16T00:20:43.733Z,1003.73
2018-12-16T00:21:43.721Z,1003.72
2018-12-16T00:22:43.709Z,1003.75
2018-12-16T00:23:43.700Z,1003.75
2018-12-16T00:24:43.686Z,1003.70
2018-12-16T00:25:43.677Z,1003.76
2018-12-16T00:26:43.665Z,1003.73
2018-12-16T00:27:43.655Z,1003.80
2018-12-16T00:28:43.644Z,1003.77
2018-12-16T00:29:43.631Z,1003.78
2018-12-16T00:30:43.620Z,1003.80
2018-12-16T00:31:43.609Z,1003.76
2018-12-16T00:32:43.597Z,1003.75
2018-12-16T00:33:43.586Z,1003.78
2018-12-16T00:34:43.573Z,1003.75
2018-12-16T00:35:43.565Z,1003.77
2018-12-16T00:36:43.550Z,1003.75
2018-12-16T00:37:43.540Z,1003.76
2018-12-16T00:38:43.528Z,1003.72
2018-12-16T00:39:43.517Z,1003.68
2018-12-16T00:40:43.506Z,1003.70
2018-12-16T00:41:43.494Z,1003.73
2018-12-16T00:42:43.484Z,1003.64
2018-12-16T00:43:43.473Z,1003.65
2018-12-16T00:44:43.463Z,1003.64
2018-12-16T00:45:43.450Z,1003.60
2018-12-16T00:46:43.438Z,1003.60
2018-12-16T00:47:43.428Z,1003.59
2018-12-16T00:48:43.414Z,1003.58
2018-12-16T00:49:43.405Z,1003.57
2018-12-16T00:50:43.394Z,1003.59
2018-12-16T00:51:43.384Z,1003.65
2018-12-16T00:52:43.372Z,1003.59
2018-12-16T00:53:43.359Z,1003.59
2018-12-16T00:54:43.350Z,1003.60
2018-12-16T00:55:43.339Z,1003.55
2018-12-16T00:56:43.328Z,1003.56
2018-12-16T00:57:43.313Z,1003.56
2018-12-16T00:58:43.304Z,1003.56
2018-12-16T00:59:43.294Z,1003.57
2018-12-16T01:00:43.282Z,1003.57
2018-12-16T01:01:43.269Z,1003.52
2018-12-16T01:02:43.259Z,1003.52
2018-12-16T01:03:43.257Z,1003.54
2018-12-16T01:04:43.235Z,1003.50
2018-12-16T01:05:43.225Z,1003.46
2018-12-16T01:06:43.216Z,1003.49
2018-12-16T01:07:43.203Z,1003.45
2018-12-16T01:08:43.190Z,1003.42
2018-12-16T01:09:43.180Z,1003.38
2018-12-16T01:10:43.169Z,1003.39
2018-12-16T01:11:43.158Z,1003.37
2018-12-16T01:12:43.145Z,1003.38
2018-12-16T01:13:43.135Z,1003.36
2018-12-16T01:14:43.125Z,1003.29
2018-12-16T01:15:43.112Z,1003.28
2018-12-16T01:16:43.100Z,1003.29
2018-12-16T01:17:43.089Z,1003.28
2018-12-16T01:18:43.079Z,1003.26
2018-12-16T01:19:43.069Z,1003.26
2018-12-16T01:20:43.061Z,1003.19
2018-12-16T01:21:43.045Z,1003.28
2018-12-16T01:22:43.557Z,1003.24
2018-12-16T01:23:43.022Z,1003.20
2018-12-16T01:24:43.011Z,1003.22
2018-12-16T01:25:43.001Z,1003.19
2018-12-16T01:26:42.989Z,1003.16
2018-12-16T01:27:42.978Z,1003.13
2018-12-16T01:28:42.966Z,1003.09
2018-12-16T01:29:42.955Z,1003.03
2018-12-16T01:30:42.946Z,1003.08
2018-12-16T01:31:42.933Z,1003.10
2018-12-16T01:32:42.925Z,1003.05
2018-12-16T01:33:42.911Z,1003.02
2018-12-16T01:34:42.901Z,1002.96
2018-12-16T01:35:42.889Z,1002.99
2018-12-16T01:36:42.876Z,1002.91
2018-12-16T01:37:42.867Z,1002.91
2018-12-16T01:38:42.855Z,1002.97
2018-12-16T01:39:42.844Z,1002.89
2018-12-16T01:40:42.833Z,1002.97
2018-12-16T01:41:42.821Z,1002.90
2018-12-16T01:42:42.812Z,1002.89
2018-12-16T01:43:42.802Z,1002.85
2018-12-16T01:44:42.788Z,1002.85
2018-12-16T01:45:42.777Z,1002.86
2018-12-16T01:46:42.765Z,1002.80
2018-12-16T01:47:42.755Z,1002.79
2018-12-16T01:48:42.744Z,1002.76
2018-12-16T01:49:42.733Z,1002.76
2018-12-16T01:50:42.721Z,1002.80
2018-12-16T01:51:42.711Z,1002.84
2018-12-16T01:52:42.699Z,1002.83
2018-12-16T01:53:42.689Z,1002.85
2018-12-16T01:54:42.677Z,1002.96
2018-12-16T01:55:42.666Z,1002.94
2018-12-16T01:56:42.654Z,1002.93
2018-12-16T01:57:42.645Z,1002.93
2018-12-16T01:58:42.633Z,1002.95
2018-12-16T01:59:42.621Z,1002.92
2018-12-16T02:00:42.611Z,1002.89
2018-12-16T02:01:42.598Z,1002.85
2018-12-16T02:02:42.589Z,1002.88
2018-12-16T02:03:42.577Z,1002.83
2018-12-16T02:04:42.566Z,1002.77
2018-12-16T02:05:42.555Z,1002.76
2018-12-16T02:06:42.544Z,1002.73
2018-12-16T02:07:42.534Z,1002.69
2018-12-16T02:08:42.526Z,1002.68
2018-12-16T02:09:42.572Z,1002.64
2018-12-16T02:10:42.502Z,1002.71
2018-12-16T02:11:42.488Z,1002.69
2018-12-16T02:12:42.479Z,1002.62
2018-12-16T02:13:42.466Z,1002.63
2018-12-16T02:14:42.456Z,1002.62
2018-12-16T02:15:42.444Z,1002.59
2018-12-16T02:16:42.433Z,1002.52
2018-12-16T02:17:42.427Z,1002.51
2018-12-16T02:18:42.414Z,1002.50
2018-12-16T02:19:42.400Z,1002.46
2018-12-16T02:20:42.390Z,1002.39
2018-12-16T02:21:42.379Z,1002.42
2018-12-16T02:22:42.366Z,1002.40
2018-12-16T02:23:42.356Z,1002.36
2018-12-16T02:24:42.345Z,1002.31
2018-12-16T02:25:42.335Z,1002.29
2018-12-16T02:26:42.323Z,1002.30
2018-12-16T02:27:42.313Z,1002.25
2018-12-16T02:28:42.301Z,1002.20
2018-12-16T02:29:42.291Z,1002.16
2018-12-16T02:30:42.278Z,1002.11
2018-12-16T02:31:42.278Z,1002.07
2018-12-16T02:32:42.259Z,1002.06
2018-12-16T02:33:42.245Z,1002.06
2018-12-16T02:34:42.234Z,1002.07
2018-12-16T02:35:42.225Z,1002.11
2018-12-16T02:36:42.218Z,1002.09
2018-12-16T02:37:42.201Z,1002.11
2018-12-16T02:38:42.191Z,1002.11
2018-12-16T02:39:42.183Z,1002.10
2018-12-16T02:40:42.169Z,1002.04
2018-12-16T02:41:42.161Z,1002.09
2018-12-16T02:42:42.147Z,1002.00
2018-12-16T02:43:42.138Z,1001.96
2018-12-16T02:44:42.126Z,1001.95
2018-12-16T02:45:42.113Z,1001.91
2018-12-16T02:46:42.103Z,1001.89
2018-12-16T02:47:42.092Z,1001.90
2018-12-16T02:48:42.083Z,1001.83
2018-12-16T02:49:42.070Z,1001.83
2018-12-16T02:50:42.063Z,1001.83
2018-12-16T02:51:42.062Z,1001.81
2018-12-16T02:52:42.038Z,1001.81
2018-12-16T02:53:42.027Z,1001.80
2018-12-16T02:54:42.017Z,1001.75
2018-12-16T02:55:42.005Z,1001.72
2018-12-16T02:56:41.995Z,1001.72
2018-12-16T02:57:41.983Z,1001.74
2018-12-16T02:58:41.975Z,1001.72
2018-12-16T02:59:41.963Z,1001.60
2018-12-16T03:00:41.952Z,1001.62
2018-12-16T03:01:41.940Z,1001.54
2018-12-16T03:02:41.934Z,1001.55
2018-12-16T03:03:41.924Z,1001.41
2018-12-16T03:04:41.907Z,1001.47
2018-12-16T03:05:41.898Z,1001.44
2018-12-16T03:06:41.888Z,1001.41
2018-12-16T03:07:41.875Z,1001.46
2018-12-16T03:08:41.864Z,1001.41
2018-12-16T03:09:41.853Z,1001.40
2018-12-16T03:10:41.845Z,1001.35
2018-12-16T03:11:41.833Z,1001.30
2018-12-16T03:12:41.820Z,1001.33
2018-12-16T03:13:41.811Z,1001.31
2018-12-16T03:14:41.801Z,1001.36
2018-12-16T03:15:41.789Z,1001.30
2018-12-16T03:16:41.778Z,1001.29
2018-12-16T03:17:41.767Z,1001.28
2018-12-16T03:18:41.757Z,1001.29
2018-12-16T03:19:41.747Z,1001.29
2018-12-16T03:20:42.932Z,1001.32
2018-12-16T03:21:41.729Z,1001.33
2018-12-16T03:22:41.713Z,1001.32
2018-12-16T03:23:41.703Z,1001.31
2018-12-16T03:24:41.709Z,1001.27
2018-12-16T03:25:41.681Z,1001.23
2018-12-16T03:26:41.672Z,1001.19
2018-12-16T03:27:41.661Z,1001.17
2018-12-16T03:28:41.649Z,1001.15
2018-12-16T03:29:41.639Z,1001.08
2018-12-16T03:30:41.639Z,1001.04
2018-12-16T03:31:41.618Z,1001.08
2018-12-16T03:32:41.606Z,1001.08
2018-12-16T03:33:41.686Z,1000.99
2018-12-16T03:34:41.585Z,1000.98
2018-12-16T03:35:41.582Z,1000.99
2018-12-16T03:36:41.563Z,1001.00
2018-12-16T03:37:41.553Z,1001.02
2018-12-16T03:38:41.542Z,1001.02
2018-12-16T03:39:41.531Z,1000.97
2018-12-16T03:40:41.523Z,1000.93
2018-12-16T03:41:41.509Z,1000.94
2018-12-16T03:42:41.507Z,1000.88
2018-12-16T03:43:41.488Z,1000.87
2018-12-16T03:44:41.480Z,1000.81
2018-12-16T03:45:41.467Z,1000.82
2018-12-16T03:46:41.457Z,1000.82
2018-12-16T03:47:41.449Z,1000.77
2018-12-16T03:48:41.434Z,1000.81
2018-12-16T03:49:41.440Z,1000.82
2018-12-16T03:50:41.421Z,1000.82
2018-12-16T03:51:41.404Z,1000.79
2018-12-16T03:52:41.393Z,1000.79
2018-12-16T03:53:41.383Z,1000.83
2018-12-16T03:54:41.374Z,1000.84
2018-12-16T03:55:41.360Z,1000.81
2018-12-16T03:56:41.365Z,1000.82
2018-12-16T03:57:41.345Z,1000.79
2018-12-16T03:58:41.329Z,1000.77
2018-12-16T03:59:41.318Z,1000.75
2018-12-16T04:00:41.307Z,1000.71
2018-12-16T04:01:41.298Z,1000.72
2018-12-16T04:02:41.286Z,1000.70
2018-12-16T04:03:41.278Z,1000.71
2018-12-16T04:04:41.267Z,1000.71
2018-12-16T04:05:41.255Z,1000.78
2018-12-16T04:06:43.165Z,1000.80
2018-12-16T04:07:41.234Z,1000.85
2018-12-16T04:08:41.222Z,1000.83
2018-12-16T04:09:41.215Z,1000.84
2018-12-16T04:10:41.201Z,1000.91
2018-12-16T04:11:41.193Z,1000.91
2018-12-16T04:12:41.181Z,1000.88
2018-12-16T04:13:41.169Z,1000.87
2018-12-16T04:14:41.405Z,1000.82
2018-12-16T04:15:41.149Z,1000.79
2018-12-16T04:16:41.139Z,1000.75
2018-12-16T04:17:41.127Z,1000.72
2018-12-16T04:18:41.117Z,1000.73
2018-12-16T04:19:41.107Z,1000.72
2018-12-16T04:20:41.095Z,1000.76
2018-12-16T04:21:41.085Z,1000.71
2018-12-16T04:22:41.075Z,1000.74
2018-12-16T04:23:41.064Z,1000.75
2018-12-16T04:24:41.056Z,1000.74
2018-12-16T04:25:41.048Z,1000.67
2018-12-16T04:26:41.031Z,1000.66
2018-12-16T04:27:41.021Z,1000.70
2018-12-16T04:28:41.012Z,1000.66
2018-12-16T04:29:41.000Z,1000.62
2018-12-16T04:30:40.991Z,1000.64
2018-12-16T04:31:40.979Z,1000.62
2018-12-16T04:32:40.967Z,1000.57
2018-12-16T04:33:40.958Z,1000.60
2018-12-16T04:34:40.951Z,1000.55
2018-12-16T04:35:40.935Z,1000.54
2018-12-16T04:36:40.927Z,1000.51
2018-12-16T04:37:40.916Z,1000.49
2018-12-16T04:38:40.904Z,1000.54
2018-12-16T04:39:40.892Z,1000.50
2018-12-16T04:40:40.883Z,1000.55
2018-12-16T04:41:40.871Z,1000.57
2018-12-16T04:42:40.861Z,1000.56
2018-12-16T04:43:40.852Z,1000.56
2018-12-16T04:44:40.837Z,1000.57
2018-12-16T04:45:40.828Z,1000.54
2018-12-16T04:46:40.819Z,1000.53
2018-12-16T04:47:40.806Z,1000.52
2018-12-16T04:48:40.795Z,1000.58
2018-12-16T04:49:40.786Z,1000.57
2018-12-16T04:50:40.774Z,1000.53
2018-12-16T04:51:40.767Z,1000.48
2018-12-16T04:52:40.753Z,1000.53
2018-12-16T04:53:40.743Z,1000.50
2018-12-16T04:54:40.734Z,1000.47
2018-12-16T04:55:40.722Z,1000.49
2018-12-16T04:56:40.708Z,1000.44
2018-12-16T04:57:40.699Z,1000.51
2018-12-16T04:58:40.689Z,1000.52
2018-12-16T04:59:40.679Z,1000.48
2018-12-16T05:00:40.666Z,1000.44
2018-12-16T05:01:40.658Z,1000.45
2018-12-16T05:02:40.646Z,1000.43
2018-12-16T05:03:40.638Z,1000.41
2018-12-16T05:04:40.624Z,1000.36
2018-12-16T05:05:40.614Z,1000.37
2018-12-16T05:06:40.602Z,1000.38
2018-12-16T05:07:40.592Z,1000.33
2018-12-16T05:08:40.581Z,1000.36
2018-12-16T05:09:40.569Z,1000.37
2018-12-16T05:10:40.560Z,1000.39
2018-12-16T05:11:40.550Z,1000.39
2018-12-16T05:12:40.540Z,1000.40
2018-12-16T05:13:40.527Z,1000.42
2018-12-16T05:14:40.517Z,1000.37
2018-12-16T05:15:40.506Z,1000.35
2018-12-16T05:16:40.496Z,1000.31
2018-12-16T05:17:40.485Z,1000.34
2018-12-16T05:18:40.475Z,1000.32
2018-12-16T05:19:40.463Z,1000.36
2018-12-16T05:20:40.452Z,1000.37
2018-12-16T05:21:40.443Z,1000.36
2018-12-16T05:22:40.430Z,1000.36
2018-12-16T05:23:42.032Z,1000.30
2018-12-16T05:24:40.409Z,1000.28
2018-12-16T05:25:40.399Z,1000.31
2018-12-16T05:26:40.388Z,1000.33
2018-12-16T05:27:40.377Z,1000.35
2018-12-16T05:28:40.366Z,1000.32
2018-12-16T05:29:40.354Z,1000.27
2018-12-16T05:30:40.344Z,1000.29
2018-12-16T05:31:40.334Z,1000.25
2018-12-16T05:32:40.324Z,1000.27
2018-12-16T05:33:40.312Z,1000.24
2018-12-16T05:34:40.302Z,1000.23
2018-12-16T05:35:40.296Z,1000.21
2018-12-16T05:36:40.280Z,1000.20
2018-12-16T05:37:40.271Z,1000.19
2018-12-16T05:38:40.257Z,1000.21
2018-12-16T05:39:40.248Z,1000.23
2018-12-16T05:40:40.236Z,1000.21
2018-12-16T05:41:40.226Z,1000.20
2018-12-16T05:42:40.216Z,1000.19
2018-12-16T05:43:40.208Z,1000.19
2018-12-16T05:44:40.193Z,1000.18
2018-12-16T05:45:40.183Z,1000.19
2018-12-16T05:46:40.174Z,1000.14
2018-12-16T05:47:40.162Z,1000.15
2018-12-16T05:48:40.149Z,1000.19
2018-12-16T05:49:40.139Z,1000.18
2018-12-16T05:50:40.129Z,1000.15
2018-12-16T05:51:40.118Z,1000.17
2018-12-16T05:52:40.107Z,1000.17
2018-12-16T05:53:40.098Z,1000.14
2018-12-16T05:54:40.088Z,1000.17
2018-12-16T05:55:40.075Z,1000.17
2018-12-16T05:56:40.064Z,1000.16
2018-12-16T05:57:40.052Z,1000.13
2018-12-16T05:58:40.043Z,1000.11
2018-12-16T05:59:40.031Z,1000.15
2018-12-16T06:00:40.021Z,1000.15
2018-12-16T06:01:40.010Z,1000.18
2018-12-16T06:02:39.999Z,1000.20
2018-12-16T06:03:39.992Z,1000.19
2018-12-16T06:04:39.977Z,1000.14
2018-12-16T06:05:39.968Z,1000.15
2018-12-16T06:06:39.957Z,1000.15
2018-12-16T06:07:39.945Z,1000.18
2018-12-16T06:08:39.934Z,1000.15
2018-12-16T06:09:39.922Z,1000.15
2018-12-16T06:10:39.912Z,1000.12
2018-12-16T06:11:39.903Z,1000.20
2018-12-16T06:12:39.891Z,1000.24
2018-12-16T06:13:39.880Z,1000.23
2018-12-16T06:14:39.869Z,1000.20
2018-12-16T06:15:39.857Z,1000.16
2018-12-16T06:16:39.848Z,1000.17
2018-12-16T06:17:39.839Z,1000.14
2018-12-16T06:18:39.825Z,1000.15
2018-12-16T06:19:39.818Z,1000.14
2018-12-16T06:20:39.804Z,1000.13
2018-12-16T06:21:39.792Z,1000.14
2018-12-16T06:22:39.781Z,1000.11
2018-12-16T06:23:39.770Z,1000.10
2018-12-16T06:24:39.760Z,1000.13
2018-12-16T06:25:39.751Z,1000.08
2018-12-16T06:26:41.069Z,1000.08
2018-12-16T06:27:39.728Z,1000.14
2018-12-16T06:28:39.715Z,1000.11
2018-12-16T06:29:39.706Z,1000.11
2018-12-16T06:30:39.700Z,1000.15
2018-12-16T06:31:39.684Z,1000.11
2018-12-16T06:32:39.672Z,1000.13
2018-12-16T06:33:39.662Z,1000.16
2018-12-16T06:34:39.652Z,1000.17
2018-12-16T06:35:39.641Z,1000.18
2018-12-16T06:36:39.630Z,1000.19
2018-12-16T06:37:39.619Z,1000.16
2018-12-16T06:38:39.608Z,1000.15
2018-12-16T06:39:39.597Z,1000.13
2018-12-16T06:40:39.587Z,1000.14
2018-12-16T06:41:39.576Z,1000.15
2018-12-16T06:42:39.565Z,1000.13
2018-12-16T06:43:39.553Z,1000.14
2018-12-16T06:44:39.544Z,1000.12
2018-12-16T06:45:39.531Z,1000.12
2018-12-16T06:46:39.521Z,1000.11
2018-12-16T06:47:39.511Z,1000.13
2018-12-16T06:48:39.499Z,1000.10
2018-12-16T06:49:39.490Z,1000.12
2018-12-16T06:50:39.479Z,1000.09
2018-12-16T06:51:39.481Z,1000.07
2018-12-16T06:52:39.457Z,1000.08
2018-12-16T06:53:39.455Z,1000.08
2018-12-16T06:54:39.435Z,1000.08
2018-12-16T06:55:43.368Z,1000.08
2018-12-16T06:56:39.412Z,1000.16
2018-12-16T06:57:39.401Z,1000.14
2018-12-16T06:58:39.391Z,1000.14
2018-12-16T06:59:39.381Z,1000.10
2018-12-16T07:00:39.370Z,1000.13
2018-12-16T07:01:39.359Z,1000.13
2018-12-16T07:02:39.348Z,1000.13
2018-12-16T07:03:39.337Z,1000.12
2018-12-16T07:04:39.327Z,1000.09
2018-12-16T07:05:39.318Z,1000.14
2018-12-16T07:06:39.306Z,1000.17
2018-12-16T07:07:39.294Z,1000.17
2018-12-16T07:08:39.284Z,1000.17
2018-12-16T07:09:39.273Z,1000.18
2018-12-16T07:10:39.265Z,1000.16
2018-12-16T07:11:39.271Z,1000.19
2018-12-16T07:12:39.241Z,1000.20
2018-12-16T07:13:39.231Z,1000.19
2018-12-16T07:14:39.220Z,1000.19
2018-12-16T07:15:39.210Z,1000.17
2018-12-16T07:16:40.619Z,1000.20
2018-12-16T07:17:39.196Z,1000.23
2018-12-16T07:18:39.184Z,1000.22
2018-12-16T07:19:39.171Z,1000.19
2018-12-16T07:20:39.164Z,1000.19
2018-12-16T07:21:39.146Z,1000.22
2018-12-16T07:22:39.138Z,1000.21
2018-12-16T07:23:39.124Z,1000.23
2018-12-16T07:24:39.135Z,1000.21
2018-12-16T07:25:39.112Z,1000.21
2018-12-16T07:26:39.091Z,1000.20
2018-12-16T07:27:39.094Z,1000.19
2018-12-16T07:28:39.071Z,1000.19
2018-12-16T07:29:39.093Z,1000.21
2018-12-16T07:30:39.052Z,1000.21
2018-12-16T07:31:39.040Z,1000.24
2018-12-16T07:32:39.028Z,1000.23
2018-12-16T07:33:39.018Z,1000.25
2018-12-16T07:34:39.008Z,1000.27
2018-12-16T07:35:38.997Z,1000.24
2018-12-16T07:36:38.987Z,1000.25
2018-12-16T07:37:38.987Z,1000.23
2018-12-16T07:38:38.967Z,1000.25
2018-12-16T07:39:38.962Z,1000.26
2018-12-16T07:40:38.945Z,1000.24
2018-12-16T07:41:38.934Z,1000.25
2018-12-16T07:42:38.948Z,1000.26
2018-12-16T07:43:38.932Z,1000.23
2018-12-16T07:44:38.909Z,1000.23
2018-12-16T07:45:38.892Z,1000.22
2018-12-16T07:46:38.887Z,1000.22
2018-12-16T07:47:38.870Z,1000.25
2018-12-16T07:48:38.894Z,1000.25
2018-12-16T07:49:38.849Z,1000.28
2018-12-16T07:50:38.841Z,1000.24
2018-12-16T07:51:38.830Z,1000.27
2018-12-16T07:52:38.818Z,1000.27
2018-12-16T07:53:38.806Z,1000.27
2018-12-16T07:54:38.817Z,1000.28
2018-12-16T07:55:38.786Z,1000.24
2018-12-16T07:56:38.774Z,1000.25
2018-12-16T07:57:38.765Z,1000.25
2018-12-16T07:58:38.754Z,1000.29
2018-12-16T07:59:38.747Z,1000.30
2018-12-16T08:00:38.765Z,1000.31
2018-12-16T08:01:38.723Z,1000.31
2018-12-16T08:02:38.712Z,1000.32
2018-12-16T08:03:38.702Z,1000.36
2018-12-16T08:04:38.737Z,1000.33
2018-12-16T08:05:38.681Z,1000.37
2018-12-16T08:06:38.670Z,1000.32
2018-12-16T08:07:38.660Z,1000.31
2018-12-16T08:08:38.650Z,1000.35
2018-12-16T08:09:38.639Z,1000.35
2018-12-16T08:10:38.628Z,1000.38
2018-12-16T08:11:38.619Z,1000.38
2018-12-16T08:12:38.612Z,1000.39
2018-12-16T08:13:38.598Z,1000.38
2018-12-16T08:14:38.588Z,1000.40
2018-12-16T08:15:38.576Z,1000.38
2018-12-16T08:16:38.566Z,1000.41
2018-12-16T08:17:38.556Z,1000.42
2018-12-16T08:18:38.544Z,1000.41
2018-12-16T08:19:38.534Z,1000.44
2018-12-16T08:20:38.524Z,1000.45
2018-12-16T08:21:38.516Z,1000.48
2018-12-16T08:22:38.509Z,1000.48
2018-12-16T08:23:38.494Z,1000.45
2018-12-16T08:24:38.481Z,1000.44
2018-12-16T08:25:38.471Z,1000.47
2018-12-16T08:26:38.462Z,1000.39
2018-12-16T08:27:38.453Z,1000.39
2018-12-16T08:28:38.444Z,1000.36
2018-12-16T08:29:38.430Z,1000.44
2018-12-16T08:30:38.419Z,1000.38
2018-12-16T08:31:38.408Z,1000.37
2018-12-16T08:32:38.396Z,1000.37
2018-12-16T08:33:38.388Z,1000.40
2018-12-16T08:34:38.378Z,1000.39
2018-12-16T08:35:38.367Z,1000.39
2018-12-16T08:36:38.356Z,1000.43
2018-12-16T08:37:38.346Z,1000.45
2018-12-16T08:38:38.336Z,1000.38
2018-12-16T08:39:38.326Z,1000.38
2018-12-16T08:40:38.363Z,1000.38
2018-12-16T08:41:38.305Z,1000.38
2018-12-16T08:42:38.298Z,1000.39
2018-12-16T08:43:38.284Z,1000.37
2018-12-16T08:44:38.273Z,1000.40
2018-12-16T08:45:38.264Z,1000.36
2018-12-16T08:46:38.253Z,1000.39
2018-12-16T08:47:38.244Z,1000.41
2018-12-16T08:48:38.233Z,1000.41
2018-12-16T08:49:38.221Z,1000.41
2018-12-16T08:50:38.211Z,1000.42
2018-12-16T08:51:38.200Z,1000.45
2018-12-16T08:52:38.191Z,1000.47
2018-12-16T08:53:38.181Z,1000.47
2018-12-16T08:54:38.171Z,1000.47
2018-12-16T08:55:38.160Z,1000.44
2018-12-16T08:56:38.149Z,1000.45
2018-12-16T08:57:38.139Z,1000.47
2018-12-16T08:58:38.131Z,1000.45
2018-12-16T08:59:38.120Z,1000.45
2018-12-16T09:00:38.107Z,1000.50
2018-12-16T09:01:38.101Z,1000.53
2018-12-16T09:02:38.087Z,1000.50
2018-12-16T09:03:38.078Z,1000.53
2018-12-16T09:04:38.067Z,1000.53
2018-12-16T09:05:38.055Z,1000.59
2018-12-16T09:06:38.046Z,1000.61
2018-12-16T09:07:38.036Z,1000.60
2018-12-16T09:08:38.024Z,1000.56
2018-12-16T09:09:38.016Z,1000.59
2018-12-16T09:10:38.005Z,1000.57
2018-12-16T09:11:37.994Z,1000.62
2018-12-16T09:12:37.982Z,1000.59
2018-12-16T09:13:37.975Z,1000.61
2018-12-16T09:14:37.964Z,1000.62
2018-12-16T09:15:37.952Z,1000.56
2018-12-16T09:16:37.942Z,1000.60
2018-12-16T09:17:37.933Z,1000.61
2018-12-16T09:18:37.921Z,1000.60
2018-12-16T09:19:37.915Z,1000.58
2018-12-16T09:20:37.901Z,1000.62
2018-12-16T09:21:38.968Z,1000.61
2018-12-16T09:22:37.881Z,1000.63
2018-12-16T09:23:37.870Z,1000.59
2018-12-16T09:24:37.867Z,1000.59
2018-12-16T09:25:37.850Z,1000.60
2018-12-16T09:26:37.840Z,1000.54
2018-12-16T09:27:37.829Z,1000.54
2018-12-16T09:28:37.817Z,1000.56
2018-12-16T09:29:37.811Z,1000.53
2018-12-16T09:30:37.798Z,1000.56
2018-12-16T09:31:37.788Z,1000.56
2018-12-16T09:32:37.778Z,1000.52
2018-12-16T09:33:37.770Z,1000.53
2018-12-16T09:34:37.757Z,1000.55
2018-12-16T09:35:37.745Z,1000.56
2018-12-16T09:36:37.736Z,1000.56
2018-12-16T09:37:37.725Z,1000.57
2018-12-16T09:38:37.715Z,1000.59
2018-12-16T09:39:37.706Z,1000.59
2018-12-16T09:40:37.693Z,1000.61
2018-12-16T09:41:37.685Z,1000.62
2018-12-16T09:42:37.675Z,1000.63
2018-12-16T09:43:37.665Z,1000.70
2018-12-16T09:44:37.653Z,1000.68
2018-12-16T09:45:37.643Z,1000.60
2018-12-16T09:46:37.633Z,1000.62
2018-12-16T09:47:37.623Z,1000.61
2018-12-16T09:48:37.612Z,1000.59
2018-12-16T09:49:37.602Z,1000.56
2018-12-16T09:50:37.592Z,1000.53
2018-12-16T09:51:37.582Z,1000.57
2018-12-16T09:52:37.574Z,1000.52
2018-12-16T09:53:37.562Z,1000.53
2018-12-16T09:54:43.992Z,1000.58
2018-12-16T09:55:37.545Z,1000.57
2018-12-16T09:56:37.532Z,1000.57
2018-12-16T09:57:37.524Z,1000.58
2018-12-16T09:58:37.513Z,1000.56
2018-12-16T09:59:37.503Z,1000.52
2018-12-16T10:00:37.492Z,1000.55
2018-12-16T10:01:37.483Z,1000.57
2018-12-16T10:02:37.473Z,1000.49
2018-12-16T10:03:37.467Z,1000.52
2018-12-16T10:04:37.453Z,1000.52
2018-12-16T10:05:37.443Z,1000.53
2018-12-16T10:06:37.433Z,1000.58
2018-12-16T10:07:37.424Z,1000.60
2018-12-16T10:08:37.414Z,1000.54
2018-12-16T10:09:37.406Z,1000.54
2018-12-16T10:10:37.394Z,1000.53
2018-12-16T10:11:37.385Z,1000.55
2018-12-16T10:12:37.373Z,1000.51
2018-12-16T10:13:37.364Z,1000.50
2018-12-16T10:14:37.354Z,1000.54
2018-12-16T10:15:37.347Z,1000.50
2018-12-16T10:16:37.335Z,1000.50
2018-12-16T10:17:37.324Z,1000.49
2018-12-16T10:18:37.315Z,1000.43
2018-12-16T10:19:37.361Z,1000.44
2018-12-16T10:20:37.295Z,1000.44
2018-12-16T10:21:37.285Z,1000.48
2018-12-16T10:22:37.277Z,1000.48
2018-12-16T10:23:37.267Z,1000.47
2018-12-16T10:24:37.257Z,1000.43
2018-12-16T10:25:37.246Z,1000.44
2018-12-16T10:26:37.237Z,1000.42
2018-12-16T10:27:37.228Z,1000.43
2018-12-16T10:28:37.217Z,1000.41
2018-12-16T10:29:37.208Z,1000.45
2018-12-16T10:30:37.198Z,1000.44
2018-12-16T10:31:37.189Z,1000.39
2018-12-16T10:32:37.181Z,1000.43
2018-12-16T10:33:37.168Z,1000.45
2018-12-16T10:34:37.158Z,1000.42
2018-12-16T10:35:37.150Z,1000.39
2018-12-16T10:36:37.140Z,1000.41
2018-12-16T10:37:37.131Z,1000.42
2018-12-16T10:38:37.121Z,1000.36
2018-12-16T10:39:37.111Z,1000.40
2018-12-16T10:40:37.101Z,1000.38
2018-12-16T10:41:37.092Z,1000.37
2018-12-16T10:42:37.083Z,1000.38
2018-12-16T10:43:37.072Z,1000.36
2018-12-16T10:44:37.062Z,1000.38
2018-12-16T10:45:37.053Z,1000.33
2018-12-16T10:46:37.042Z,1000.37
2018-12-16T10:47:37.033Z,1000.35
2018-12-16T10:48:37.023Z,1000.30
2018-12-16T10:49:37.019Z,1000.34
2018-12-16T10:50:37.004Z,1000.36
2018-12-16T10:51:36.995Z,1000.32
2018-12-16T10:52:36.984Z,1000.33
2018-12-16T10:53:36.975Z,1000.37
2018-12-16T10:54:36.967Z,1000.34
2018-12-16T10:55:36.957Z,1000.34
2018-12-16T10:56:36.945Z,1000.34
2018-12-16T10:57:36.936Z,1000.28
2018-12-16T10:58:36.929Z,1000.27
2018-12-16T10:59:36.919Z,1000.26
2018-12-16T11:00:36.906Z,1000.22
2018-12-16T11:01:36.897Z,1000.18
2018-12-16T11:02:36.889Z,1000.19
2018-12-16T11:03:36.878Z,1000.21
2018-12-16T11:04:36.869Z,1000.24
2018-12-16T11:05:36.860Z,1000.26
2018-12-16T11:06:36.851Z,1000.24
2018-12-16T11:07:36.840Z,1000.26
2018-12-16T11:08:36.831Z,1000.23
2018-12-16T11:09:36.820Z,1000.24
2018-12-16T11:10:36.816Z,1000.27
2018-12-16T11:11:36.804Z,1000.22
2018-12-16T11:12:36.793Z,1000.21
2018-12-16T11:13:36.785Z,1000.20
2018-12-16T11:14:36.777Z,1000.19
2018-12-16T11:15:36.764Z,1000.21
2018-12-16T11:16:36.756Z,1000.22
2018-12-16T11:17:36.746Z,1000.20
2018-12-16T11:18:36.735Z,1000.19
2018-12-16T11:19:36.729Z,1000.19
2018-12-16T11:20:36.719Z,1000.16
2018-12-16T11:21:36.707Z,1000.16
2018-12-16T11:22:36.697Z,1000.14
2018-12-16T11:23:36.690Z,1000.10
2018-12-16T11:24:36.678Z,1000.13
2018-12-16T11:25:36.670Z,1000.08
2018-12-16T11:26:36.660Z,1000.08
2018-12-16T11:27:36.653Z,1000.09
2018-12-16T11:28:36.641Z,1000.09
2018-12-16T11:29:36.934Z,1000.11
2018-12-16T11:30:36.624Z,1000.03
2018-12-16T11:31:36.616Z,1000.03
2018-12-16T11:32:36.635Z,1000.02
2018-12-16T11:33:36.595Z,1000.02
2018-12-16T11:34:36.588Z,999.96
2018-12-16T11:35:36.576Z,999.94
2018-12-16T11:36:36.567Z,999.95
2018-12-16T11:37:36.559Z,999.93
2018-12-16T11:38:36.550Z,999.92
2018-12-16T11:39:36.540Z,999.91
2018-12-16T11:40:36.529Z,999.93
2018-12-16T11:41:36.520Z,999.93
2018-12-16T11:42:36.512Z,999.91
2018-12-16T11:43:36.502Z,999.98
2018-12-16T11:44:36.494Z,999.98
2018-12-16T11:45:36.484Z,1000.01
2018-12-16T11:46:36.473Z,999.98
2018-12-16T11:47:36.466Z,999.95
2018-12-16T11:48:36.455Z,999.95
2018-12-16T11:49:36.446Z,999.97
2018-12-16T11:50:36.438Z,999.95
2018-12-16T11:51:36.433Z,999.93
2018-12-16T11:52:36.418Z,999.96
2018-12-16T11:53:36.408Z,999.96
2018-12-16T11:54:36.400Z,999.92
2018-12-16T11:55:36.390Z,999.94
2018-12-16T11:56:36.381Z,999.96
2018-12-16T11:57:36.372Z,1000.01
2018-12-16T11:58:36.365Z,999.99
2018-12-16T11:59:36.354Z,1000.03
2018-12-16T12:00:36.344Z,1000.01
2018-12-16T12:01:36.334Z,999.99
2018-12-16T12:02:36.327Z,1000.00
2018-12-16T12:03:36.317Z,999.98
2018-12-16T12:04:36.308Z,999.97
2018-12-16T12:05:36.298Z,999.98
2018-12-16T12:06:36.290Z,999.96